sensor_id;sensor_type;location;lat;lon;timestamp;temperature;humidity
13944;DHT22;7044;53.286;8.534;2023-08-01T00:00:13;17.20;99.90
13944;DHT22;7044;53.286;8.534;2023-08-01T00:02:40;17.30;99.90
13944;DHT22;7044;53.286;8.534;2023-08-01T00:05:08;17.30;99.90
13944;DHT22;7044;53.286;8.534;2023-08-01T00:07:35;17.30;99.90
13944;DHT22;7044;53.286;8.534;2023-08-01T00:10:02;17.30;99.90
13944;DHT22;7044;53.286;8.534;2023-08-01T00:12:29;17.20;99.90
13944;DHT22;7044;53.286;8.534;2023-08-01T00:14:57;17.20;99.90
13944;DHT22;7044;53.286;8.534;2023-08-01T00:17:24;17.20;99.90
13944;DHT22;7044;53.286;8.534;2023-08-01T00:19:51;17.20;99.90
13944;DHT22;7044;53.286;8.534;2023-08-01T00:22:18;17.20;99.90
13944;DHT22;7044;53.286;8.534;2023-08-01T00:24:45;17.30;99.90
13944;DHT22;7044;53.286;8.534;2023-08-01T00:27:12;17.20;99.90
13944;DHT22;7044;53.286;8.534;2023-08-01T00:29:39;17.20;99.90
13944;DHT22;7044;53.286;8.534;2023-08-01T00:32:08;17.20;99.90
13944;DHT22;7044;53.286;8.534;2023-08-01T00:34:35;17.30;99.90
13944;DHT22;7044;53.286;8.534;2023-08-01T00:37:02;17.20;99.90
13944;DHT22;7044;53.286;8.534;2023-08-01T00:39:29;17.20;99.90
13944;DHT22;7044;53.286;8.534;2023-08-01T00:41:55;17.30;99.90
13944;DHT22;7044;53.286;8.534;2023-08-01T00:44:22;17.20;99.90
13944;DHT22;7044;53.286;8.534;2023-08-01T00:46:49;17.20;99.90
13944;DHT22;7044;53.286;8.534;2023-08-01T00:49:17;17.20;99.90
13944;DHT22;7044;53.286;8.534;2023-08-01T00:51:44;17.20;99.90
13944;DHT22;7044;53.286;8.534;2023-08-01T00:54:11;17.30;99.90
13944;DHT22;7044;53.286;8.534;2023-08-01T00:56:38;17.20;99.90
13944;DHT22;7044;53.286;8.534;2023-08-01T00:59:05;17.20;99.90
13944;DHT22;7044;53.286;8.534;2023-08-01T01:01:32;17.20;99.90
13944;DHT22;7044;53.286;8.534;2023-08-01T01:03:59;17.20;99.90
13944;DHT22;7044;53.286;8.534;2023-08-01T01:06:30;17.30;99.90
13944;DHT22;7044;53.286;8.534;2023-08-01T01:08:58;17.30;99.90
13944;DHT22;7044;53.286;8.534;2023-08-01T01:11:25;17.20;99.90
13944;DHT22;7044;53.286;8.534;2023-08-01T01:13:52;17.70;99.90
13944;DHT22;7044;53.286;8.534;2023-08-01T01:16:19;17.20;99.90
13944;DHT22;7044;53.286;8.534;2023-08-01T01:18:46;17.10;99.90
13944;DHT22;7044;53.286;8.534;2023-08-01T01:24:37;17.20;99.90
13944;DHT22;7044;53.286;8.534;2023-08-01T01:27:05;17.20;99.90
13944;DHT22;7044;53.286;8.534;2023-08-01T01:29:33;17.10;99.90
13944;DHT22;7044;53.286;8.534;2023-08-01T01:34:28;17.20;99.90
13944;DHT22;7044;53.286;8.534;2023-08-01T01:39:23;17.10;99.90
13944;DHT22;7044;53.286;8.534;2023-08-01T01:44:18;17.10;99.90
13944;DHT22;7044;53.286;8.534;2023-08-01T01:46:45;17.00;99.90
13944;DHT22;7044;53.286;8.534;2023-08-01T01:49:14;17.10;99.90
13944;DHT22;7044;53.286;8.534;2023-08-01T01:51:41;17.10;99.90
13944;DHT22;7044;53.286;8.534;2023-08-01T01:54:09;17.10;99.90
13944;DHT22;7044;53.286;8.534;2023-08-01T01:56:36;17.10;99.90
13944;DHT22;7044;53.286;8.534;2023-08-01T01:59:03;17.10;99.90
13944;DHT22;7044;53.286;8.534;2023-08-01T02:01:30;17.00;99.90
13944;DHT22;7044;53.286;8.534;2023-08-01T02:03:57;17.10;99.90
13944;DHT22;7044;53.286;8.534;2023-08-01T02:06:23;17.00;99.90
13944;DHT22;7044;53.286;8.534;2023-08-01T02:08:50;17.10;99.90
13944;DHT22;7044;53.286;8.534;2023-08-01T02:11:18;17.00;99.90
13944;DHT22;7044;53.286;8.534;2023-08-01T02:13:45;17.00;99.90
13944;DHT22;7044;53.286;8.534;2023-08-01T02:16:12;17.00;99.90
13944;DHT22;7044;53.286;8.534;2023-08-01T02:18:39;16.90;99.90
13944;DHT22;7044;53.286;8.534;2023-08-01T02:21:05;16.90;99.90
13944;DHT22;7044;53.286;8.534;2023-08-01T02:23:32;16.90;99.90
13944;DHT22;7044;53.286;8.534;2023-08-01T02:26:01;16.80;99.90
13944;DHT22;7044;53.286;8.534;2023-08-01T02:28:30;16.80;99.90
13944;DHT22;7044;53.286;8.534;2023-08-01T02:30:56;16.80;99.90
13944;DHT22;7044;53.286;8.534;2023-08-01T02:33:23;16.70;99.90
13944;DHT22;7044;53.286;8.534;2023-08-01T02:35:50;16.80;99.90
13944;DHT22;7044;53.286;8.534;2023-08-01T02:38:17;16.80;99.90
13944;DHT22;7044;53.286;8.534;2023-08-01T02:40:43;16.70;99.90
13944;DHT22;7044;53.286;8.534;2023-08-01T02:43:10;16.80;99.90
13944;DHT22;7044;53.286;8.534;2023-08-01T02:45:38;16.70;99.90
13944;DHT22;7044;53.286;8.534;2023-08-01T02:48:05;16.70;99.90
13944;DHT22;7044;53.286;8.534;2023-08-01T02:50:32;16.70;99.90
13944;DHT22;7044;53.286;8.534;2023-08-01T02:52:59;16.80;99.90
13944;DHT22;7044;53.286;8.534;2023-08-01T02:55:25;16.60;99.90
13944;DHT22;7044;53.286;8.534;2023-08-01T02:57:52;16.60;99.90
13944;DHT22;7044;53.286;8.534;2023-08-01T03:00:19;16.60;99.90
13944;DHT22;7044;53.286;8.534;2023-08-01T03:02:47;16.50;99.90
13944;DHT22;7044;53.286;8.534;2023-08-01T03:05:14;16.20;99.90
13944;DHT22;7044;53.286;8.534;2023-08-01T03:07:41;16.50;99.90
13944;DHT22;7044;53.286;8.534;2023-08-01T03:10:08;16.50;99.90
13944;DHT22;7044;53.286;8.534;2023-08-01T03:12:36;16.50;99.90
13944;DHT22;7044;53.286;8.534;2023-08-01T03:15:04;16.50;99.90
13944;DHT22;7044;53.286;8.534;2023-08-01T03:17:31;16.40;99.90
13944;DHT22;7044;53.286;8.534;2023-08-01T03:19:59;16.40;99.90
13944;DHT22;7044;53.286;8.534;2023-08-01T03:22:26;16.40;99.90
13944;DHT22;7044;53.286;8.534;2023-08-01T03:27:20;16.50;99.90
13944;DHT22;7044;53.286;8.534;2023-08-01T03:29:46;16.40;99.90
13944;DHT22;7044;53.286;8.534;2023-08-01T03:32:13;16.50;99.90
13944;DHT22;7044;53.286;8.534;2023-08-01T03:34:40;16.50;99.90
13944;DHT22;7044;53.286;8.534;2023-08-01T03:37:08;16.50;99.90
13944;DHT22;7044;53.286;8.534;2023-08-01T03:39:35;16.50;99.90
13944;DHT22;7044;53.286;8.534;2023-08-01T03:42:02;16.50;99.90
13944;DHT22;7044;53.286;8.534;2023-08-01T03:44:29;16.50;99.90
13944;DHT22;7044;53.286;8.534;2023-08-01T03:46:57;16.40;99.90
13944;DHT22;7044;53.286;8.534;2023-08-01T03:49:24;16.50;99.90
13944;DHT22;7044;53.286;8.534;2023-08-01T03:51:51;16.50;99.90
13944;DHT22;7044;53.286;8.534;2023-08-01T03:54:19;16.40;99.90
13944;DHT22;7044;53.286;8.534;2023-08-01T03:56:46;16.40;99.90
13944;DHT22;7044;53.286;8.534;2023-08-01T03:59:13;16.50;99.90
13944;DHT22;7044;53.286;8.534;2023-08-01T04:01:40;16.50;99.90
13944;DHT22;7044;53.286;8.534;2023-08-01T04:04:08;16.50;99.90
13944;DHT22;7044;53.286;8.534;2023-08-01T04:06:35;16.50;99.90
13944;DHT22;7044;53.286;8.534;2023-08-01T04:09:02;16.50;99.90
13944;DHT22;7044;53.286;8.534;2023-08-01T04:11:30;16.50;99.90
13944;DHT22;7044;53.286;8.534;2023-08-01T04:13:56;16.40;99.90
13944;DHT22;7044;53.286;8.534;2023-08-01T04:16:23;16.40;99.90
13944;DHT22;7044;53.286;8.534;2023-08-01T04:18:50;16.50;99.90
13944;DHT22;7044;53.286;8.534;2023-08-01T04:21:17;16.30;99.90
13944;DHT22;7044;53.286;8.534;2023-08-01T04:23:44;16.40;99.90
13944;DHT22;7044;53.286;8.534;2023-08-01T04:26:11;16.40;99.90
13944;DHT22;7044;53.286;8.534;2023-08-01T04:28:39;18.10;99.90
13944;DHT22;7044;53.286;8.534;2023-08-01T04:31:06;16.30;99.90
13944;DHT22;7044;53.286;8.534;2023-08-01T04:33:33;16.20;99.90
13944;DHT22;7044;53.286;8.534;2023-08-01T04:35:59;16.30;99.90
13944;DHT22;7044;53.286;8.534;2023-08-01T04:38:27;16.20;99.90
13944;DHT22;7044;53.286;8.534;2023-08-01T04:40:54;16.30;99.90
13944;DHT22;7044;53.286;8.534;2023-08-01T04:43:20;16.20;99.90
13944;DHT22;7044;53.286;8.534;2023-08-01T04:45:49;16.20;99.90
13944;DHT22;7044;53.286;8.534;2023-08-01T04:48:15;15.60;99.90
13944;DHT22;7044;53.286;8.534;2023-08-01T04:50:42;16.20;99.90
13944;DHT22;7044;53.286;8.534;2023-08-01T04:53:09;16.30;99.90
13944;DHT22;7044;53.286;8.534;2023-08-01T04:55:36;16.20;99.90
13944;DHT22;7044;53.286;8.534;2023-08-01T04:58:03;16.20;99.90
13944;DHT22;7044;53.286;8.534;2023-08-01T05:00:30;16.30;99.90
13944;DHT22;7044;53.286;8.534;2023-08-01T05:02:58;16.20;99.90
13944;DHT22;7044;53.286;8.534;2023-08-01T05:05:26;16.20;99.90
13944;DHT22;7044;53.286;8.534;2023-08-01T05:07:53;16.20;99.90
13944;DHT22;7044;53.286;8.534;2023-08-01T05:10:19;16.30;99.90
13944;DHT22;7044;53.286;8.534;2023-08-01T05:12:46;16.30;99.90
13944;DHT22;7044;53.286;8.534;2023-08-01T05:15:13;16.30;99.90
13944;DHT22;7044;53.286;8.534;2023-08-01T05:17:40;16.30;99.90
13944;DHT22;7044;53.286;8.534;2023-08-01T05:20:09;16.30;99.90
13944;DHT22;7044;53.286;8.534;2023-08-01T05:22:36;16.40;99.90
13944;DHT22;7044;53.286;8.534;2023-08-01T05:25:03;16.30;99.90
13944;DHT22;7044;53.286;8.534;2023-08-01T05:27:30;16.30;99.90
13944;DHT22;7044;53.286;8.534;2023-08-01T05:29:57;16.30;99.90
13944;DHT22;7044;53.286;8.534;2023-08-01T05:32:24;16.40;99.90
13944;DHT22;7044;53.286;8.534;2023-08-01T05:34:51;16.40;99.90
13944;DHT22;7044;53.286;8.534;2023-08-01T05:37:19;16.40;99.90
13944;DHT22;7044;53.286;8.534;2023-08-01T05:39:45;16.50;99.90
13944;DHT22;7044;53.286;8.534;2023-08-01T05:42:12;16.40;99.90
13944;DHT22;7044;53.286;8.534;2023-08-01T05:44:39;16.60;99.90
13944;DHT22;7044;53.286;8.534;2023-08-01T05:47:06;16.40;99.90
13944;DHT22;7044;53.286;8.534;2023-08-01T05:49:33;16.50;99.90
13944;DHT22;7044;53.286;8.534;2023-08-01T05:52:00;16.40;99.90
13944;DHT22;7044;53.286;8.534;2023-08-01T05:54:28;16.50;99.90
13944;DHT22;7044;53.286;8.534;2023-08-01T05:56:54;16.50;99.90
13944;DHT22;7044;53.286;8.534;2023-08-01T05:59:21;16.50;99.90
13944;DHT22;7044;53.286;8.534;2023-08-01T06:01:48;16.50;99.90
13944;DHT22;7044;53.286;8.534;2023-08-01T06:04:15;16.60;99.90
13944;DHT22;7044;53.286;8.534;2023-08-01T06:06:42;16.50;99.90
13944;DHT22;7044;53.286;8.534;2023-08-01T06:09:09;16.50;99.90
13944;DHT22;7044;53.286;8.534;2023-08-01T06:11:37;16.60;99.90
13944;DHT22;7044;53.286;8.534;2023-08-01T06:14:04;16.70;99.90
13944;DHT22;7044;53.286;8.534;2023-08-01T06:16:31;16.80;99.90
13944;DHT22;7044;53.286;8.534;2023-08-01T06:18:58;16.80;99.90
13944;DHT22;7044;53.286;8.534;2023-08-01T06:21:25;16.80;99.90
13944;DHT22;7044;53.286;8.534;2023-08-01T06:23:52;16.90;99.90
13944;DHT22;7044;53.286;8.534;2023-08-01T06:26:19;16.90;99.90
13944;DHT22;7044;53.286;8.534;2023-08-01T06:28:47;16.90;99.90
13944;DHT22;7044;53.286;8.534;2023-08-01T06:31:14;16.90;99.90
13944;DHT22;7044;53.286;8.534;2023-08-01T06:33:41;16.90;99.90
13944;DHT22;7044;53.286;8.534;2023-08-01T06:36:07;16.90;99.90
13944;DHT22;7044;53.286;8.534;2023-08-01T06:38:34;16.90;99.90
13944;DHT22;7044;53.286;8.534;2023-08-01T06:41:01;16.90;99.90
13944;DHT22;7044;53.286;8.534;2023-08-01T06:43:28;17.00;99.90
13944;DHT22;7044;53.286;8.534;2023-08-01T06:45:56;16.90;99.90
13944;DHT22;7044;53.286;8.534;2023-08-01T06:48:23;16.80;99.90
13944;DHT22;7044;53.286;8.534;2023-08-01T06:50:50;16.80;99.90
13944;DHT22;7044;53.286;8.534;2023-08-01T06:53:17;16.80;99.90
13944;DHT22;7044;53.286;8.534;2023-08-01T06:55:43;16.80;99.90
13944;DHT22;7044;53.286;8.534;2023-08-01T06:58:10;16.80;99.90
13944;DHT22;7044;53.286;8.534;2023-08-01T07:00:37;16.80;99.90
13944;DHT22;7044;53.286;8.534;2023-08-01T07:03:08;16.70;99.90
13944;DHT22;7044;53.286;8.534;2023-08-01T07:05:34;16.80;99.90
13944;DHT22;7044;53.286;8.534;2023-08-01T07:08:01;16.90;99.90
13944;DHT22;7044;53.286;8.534;2023-08-01T07:10:28;16.90;99.90
13944;DHT22;7044;53.286;8.534;2023-08-01T07:12:55;16.90;99.90
13944;DHT22;7044;53.286;8.534;2023-08-01T07:15:22;16.90;99.90
13944;DHT22;7044;53.286;8.534;2023-08-01T07:17:48;16.90;99.90
13944;DHT22;7044;53.286;8.534;2023-08-01T07:20:17;16.90;99.90
13944;DHT22;7044;53.286;8.534;2023-08-01T07:22:44;17.00;99.90
13944;DHT22;7044;53.286;8.534;2023-08-01T07:25:11;17.10;99.90
13944;DHT22;7044;53.286;8.534;2023-08-01T07:27:38;17.10;99.90
13944;DHT22;7044;53.286;8.534;2023-08-01T07:30:06;17.10;99.90
13944;DHT22;7044;53.286;8.534;2023-08-01T07:32:33;16.70;99.90
13944;DHT22;7044;53.286;8.534;2023-08-01T07:34:59;17.00;99.90
13944;DHT22;7044;53.286;8.534;2023-08-01T07:37:27;16.90;99.90
13944;DHT22;7044;53.286;8.534;2023-08-01T07:39:54;17.00;99.90
13944;DHT22;7044;53.286;8.534;2023-08-01T07:42:21;17.00;99.90
13944;DHT22;7044;53.286;8.534;2023-08-01T07:44:48;17.10;99.90
13944;DHT22;7044;53.286;8.534;2023-08-01T07:47:15;17.20;99.90
13944;DHT22;7044;53.286;8.534;2023-08-01T07:49:42;17.20;99.90
13944;DHT22;7044;53.286;8.534;2023-08-01T07:52:08;17.10;99.90
13944;DHT22;7044;53.286;8.534;2023-08-01T07:54:37;17.10;99.90
13944;DHT22;7044;53.286;8.534;2023-08-01T07:57:04;17.10;99.90
13944;DHT22;7044;53.286;8.534;2023-08-01T07:59:31;17.20;99.90
13944;DHT22;7044;53.286;8.534;2023-08-01T08:01:58;17.30;99.90
13944;DHT22;7044;53.286;8.534;2023-08-01T08:04:25;17.40;99.90
13944;DHT22;7044;53.286;8.534;2023-08-01T08:06:52;17.40;99.90
13944;DHT22;7044;53.286;8.534;2023-08-01T08:09:20;17.40;99.90
13944;DHT22;7044;53.286;8.534;2023-08-01T08:11:50;18.10;99.90
13944;DHT22;7044;53.286;8.534;2023-08-01T08:14:17;18.20;99.90
13944;DHT22;7044;53.286;8.534;2023-08-01T08:16:46;17.60;99.90
13944;DHT22;7044;53.286;8.534;2023-08-01T08:19:12;17.70;99.90
13944;DHT22;7044;53.286;8.534;2023-08-01T08:21:39;18.50;99.90
13944;DHT22;7044;53.286;8.534;2023-08-01T08:24:06;17.80;99.90
13944;DHT22;7044;53.286;8.534;2023-08-01T08:26:33;17.70;99.90
13944;DHT22;7044;53.286;8.534;2023-08-01T08:29:04;17.60;99.90
13944;DHT22;7044;53.286;8.534;2023-08-01T08:31:31;17.70;99.90
13944;DHT22;7044;53.286;8.534;2023-08-01T08:33:58;17.70;99.90
13944;DHT22;7044;53.286;8.534;2023-08-01T08:36:24;17.60;99.90
13944;DHT22;7044;53.286;8.534;2023-08-01T08:38:51;17.40;99.90
13944;DHT22;7044;53.286;8.534;2023-08-01T08:41:21;17.60;99.90
13944;DHT22;7044;53.286;8.534;2023-08-01T08:43:48;17.60;99.90
13944;DHT22;7044;53.286;8.534;2023-08-01T08:46:17;17.80;99.90
13944;DHT22;7044;53.286;8.534;2023-08-01T08:48:46;17.80;99.90
13944;DHT22;7044;53.286;8.534;2023-08-01T08:51:13;17.70;99.90
13944;DHT22;7044;53.286;8.534;2023-08-01T08:53:40;17.70;99.90
13944;DHT22;7044;53.286;8.534;2023-08-01T08:56:09;17.80;99.90
13944;DHT22;7044;53.286;8.534;2023-08-01T08:58:36;17.80;99.90
13944;DHT22;7044;53.286;8.534;2023-08-01T09:01:06;17.80;99.90
13944;DHT22;7044;53.286;8.534;2023-08-01T09:03:34;17.90;99.90
13944;DHT22;7044;53.286;8.534;2023-08-01T09:06:04;17.90;99.90
13944;DHT22;7044;53.286;8.534;2023-08-01T09:08:39;18.00;99.90
13944;DHT22;7044;53.286;8.534;2023-08-01T09:11:06;18.10;99.90
13944;DHT22;7044;53.286;8.534;2023-08-01T09:13:33;18.10;99.90
13944;DHT22;7044;53.286;8.534;2023-08-01T09:16:02;18.30;99.90
13944;DHT22;7044;53.286;8.534;2023-08-01T09:18:29;18.40;99.90
13944;DHT22;7044;53.286;8.534;2023-08-01T09:20:58;18.30;99.90
13944;DHT22;7044;53.286;8.534;2023-08-01T09:23:27;18.10;99.90
13944;DHT22;7044;53.286;8.534;2023-08-01T09:25:56;18.00;99.90
13944;DHT22;7044;53.286;8.534;2023-08-01T09:28:23;18.00;99.90
13944;DHT22;7044;53.286;8.534;2023-08-01T09:30:52;18.10;99.90
13944;DHT22;7044;53.286;8.534;2023-08-01T09:33:20;18.30;99.90
13944;DHT22;7044;53.286;8.534;2023-08-01T09:35:48;18.30;99.90
13944;DHT22;7044;53.286;8.534;2023-08-01T09:38:17;18.40;99.90
13944;DHT22;7044;53.286;8.534;2023-08-01T09:40:44;18.30;99.90
13944;DHT22;7044;53.286;8.534;2023-08-01T09:43:12;18.20;99.90
13944;DHT22;7044;53.286;8.534;2023-08-01T09:45:50;18.20;99.90
13944;DHT22;7044;53.286;8.534;2023-08-01T09:48:23;18.20;99.90
13944;DHT22;7044;53.286;8.534;2023-08-01T09:50:50;18.20;99.90
13944;DHT22;7044;53.286;8.534;2023-08-01T09:53:18;18.00;99.90
13944;DHT22;7044;53.286;8.534;2023-08-01T09:55:46;18.00;99.90
13944;DHT22;7044;53.286;8.534;2023-08-01T09:58:17;18.00;99.90
13944;DHT22;7044;53.286;8.534;2023-08-01T10:00:48;18.00;99.90
13944;DHT22;7044;53.286;8.534;2023-08-01T10:03:16;18.30;99.90
13944;DHT22;7044;53.286;8.534;2023-08-01T10:05:44;18.30;99.90
13944;DHT22;7044;53.286;8.534;2023-08-01T10:08:13;18.90;99.90
13944;DHT22;7044;53.286;8.534;2023-08-01T10:10:42;18.70;99.90
13944;DHT22;7044;53.286;8.534;2023-08-01T10:13:10;18.70;99.90
13944;DHT22;7044;53.286;8.534;2023-08-01T10:15:40;18.60;99.90
13944;DHT22;7044;53.286;8.534;2023-08-01T10:18:07;18.40;99.90
13944;DHT22;7044;53.286;8.534;2023-08-01T10:20:36;18.30;99.90
13944;DHT22;7044;53.286;8.534;2023-08-01T10:23:04;18.50;99.90
13944;DHT22;7044;53.286;8.534;2023-08-01T10:25:32;18.50;99.90
13944;DHT22;7044;53.286;8.534;2023-08-01T10:28:02;18.50;99.90
13944;DHT22;7044;53.286;8.534;2023-08-01T10:30:29;18.50;99.90
13944;DHT22;7044;53.286;8.534;2023-08-01T10:32:57;18.20;99.90
13944;DHT22;7044;53.286;8.534;2023-08-01T10:35:34;18.00;99.90
13944;DHT22;7044;53.286;8.534;2023-08-01T10:38:06;17.70;99.90
13944;DHT22;7044;53.286;8.534;2023-08-01T10:40:34;17.40;99.90
13944;DHT22;7044;53.286;8.534;2023-08-01T10:43:02;16.30;99.90
13944;DHT22;7044;53.286;8.534;2023-08-01T10:45:29;17.80;99.90
13944;DHT22;7044;53.286;8.534;2023-08-01T10:48:06;17.20;99.90
13944;DHT22;7044;53.286;8.534;2023-08-01T10:50:34;17.30;99.90
13944;DHT22;7044;53.286;8.534;2023-08-01T10:53:03;17.50;99.90
13944;DHT22;7044;53.286;8.534;2023-08-01T10:55:39;17.60;99.90
13944;DHT22;7044;53.286;8.534;2023-08-01T10:58:08;17.60;99.90
13944;DHT22;7044;53.286;8.534;2023-08-01T11:00:34;17.60;99.90
13944;DHT22;7044;53.286;8.534;2023-08-01T11:03:01;17.80;99.90
13944;DHT22;7044;53.286;8.534;2023-08-01T11:05:28;17.80;99.90
13944;DHT22;7044;53.286;8.534;2023-08-01T11:07:56;17.80;99.90
13944;DHT22;7044;53.286;8.534;2023-08-01T11:10:24;17.90;99.90
13944;DHT22;7044;53.286;8.534;2023-08-01T11:12:51;17.80;99.90
13944;DHT22;7044;53.286;8.534;2023-08-01T11:15:20;17.80;99.90
13944;DHT22;7044;53.286;8.534;2023-08-01T11:17:48;17.60;99.90
13944;DHT22;7044;53.286;8.534;2023-08-01T11:20:16;17.50;99.90
13944;DHT22;7044;53.286;8.534;2023-08-01T11:22:51;17.50;99.90
13944;DHT22;7044;53.286;8.534;2023-08-01T11:25:18;17.40;99.90
13944;DHT22;7044;53.286;8.534;2023-08-01T11:27:45;17.30;99.90
13944;DHT22;7044;53.286;8.534;2023-08-01T11:30:12;17.30;99.90
13944;DHT22;7044;53.286;8.534;2023-08-01T11:32:40;17.50;99.90
13944;DHT22;7044;53.286;8.534;2023-08-01T11:35:07;17.60;99.90
13944;DHT22;7044;53.286;8.534;2023-08-01T11:37:35;18.00;99.90
13944;DHT22;7044;53.286;8.534;2023-08-01T11:40:03;18.10;99.90
13944;DHT22;7044;53.286;8.534;2023-08-01T11:42:31;18.40;99.90
13944;DHT22;7044;53.286;8.534;2023-08-01T11:45:08;18.40;99.90
13944;DHT22;7044;53.286;8.534;2023-08-01T11:47:35;18.40;99.90
13944;DHT22;7044;53.286;8.534;2023-08-01T11:50:04;18.20;99.90
13944;DHT22;7044;53.286;8.534;2023-08-01T11:52:31;18.30;99.90
13944;DHT22;7044;53.286;8.534;2023-08-01T11:54:58;17.90;99.90
13944;DHT22;7044;53.286;8.534;2023-08-01T11:57:25;17.90;99.90
13944;DHT22;7044;53.286;8.534;2023-08-01T11:59:53;17.90;99.90
13944;DHT22;7044;53.286;8.534;2023-08-01T12:02:21;17.90;99.90
13944;DHT22;7044;53.286;8.534;2023-08-01T12:04:48;18.00;99.90
13944;DHT22;7044;53.286;8.534;2023-08-01T12:07:17;18.00;99.90
13944;DHT22;7044;53.286;8.534;2023-08-01T12:09:43;18.00;99.90
13944;DHT22;7044;53.286;8.534;2023-08-01T12:12:10;18.00;99.90
13944;DHT22;7044;53.286;8.534;2023-08-01T12:14:40;17.90;99.90
13944;DHT22;7044;53.286;8.534;2023-08-01T12:17:07;18.20;99.90
13944;DHT22;7044;53.286;8.534;2023-08-01T12:19:34;18.30;99.90
13944;DHT22;7044;53.286;8.534;2023-08-01T12:22:01;18.20;99.90
13944;DHT22;7044;53.286;8.534;2023-08-01T12:24:30;18.20;99.90
13944;DHT22;7044;53.286;8.534;2023-08-01T12:26:57;18.50;99.90
13944;DHT22;7044;53.286;8.534;2023-08-01T12:29:23;18.40;99.90
13944;DHT22;7044;53.286;8.534;2023-08-01T12:31:50;18.60;99.90
13944;DHT22;7044;53.286;8.534;2023-08-01T12:34:17;18.60;99.90
13944;DHT22;7044;53.286;8.534;2023-08-01T12:36:44;18.70;99.90
13944;DHT22;7044;53.286;8.534;2023-08-01T12:39:11;18.60;99.90
13944;DHT22;7044;53.286;8.534;2023-08-01T12:41:39;18.60;99.90
13944;DHT22;7044;53.286;8.534;2023-08-01T12:44:06;18.50;99.90
13944;DHT22;7044;53.286;8.534;2023-08-01T12:46:33;18.40;99.90
13944;DHT22;7044;53.286;8.534;2023-08-01T12:49:00;18.60;99.90
13944;DHT22;7044;53.286;8.534;2023-08-01T12:51:28;18.50;99.90
13944;DHT22;7044;53.286;8.534;2023-08-01T12:53:54;18.60;99.90
13944;DHT22;7044;53.286;8.534;2023-08-01T12:56:21;18.60;99.90
13944;DHT22;7044;53.286;8.534;2023-08-01T12:58:49;18.60;99.90
13944;DHT22;7044;53.286;8.534;2023-08-01T13:01:16;18.70;99.90
13944;DHT22;7044;53.286;8.534;2023-08-01T13:03:43;18.70;99.90
13944;DHT22;7044;53.286;8.534;2023-08-01T13:06:11;18.70;99.90
13944;DHT22;7044;53.286;8.534;2023-08-01T13:08:38;18.70;99.90
13944;DHT22;7044;53.286;8.534;2023-08-01T13:11:10;18.90;99.90
13944;DHT22;7044;53.286;8.534;2023-08-01T13:13:38;18.90;99.90
13944;DHT22;7044;53.286;8.534;2023-08-01T13:16:08;18.80;99.90
13944;DHT22;7044;53.286;8.534;2023-08-01T13:18:34;18.80;99.90
13944;DHT22;7044;53.286;8.534;2023-08-01T13:21:02;18.60;99.90
13944;DHT22;7044;53.286;8.534;2023-08-01T13:23:29;18.50;99.90
13944;DHT22;7044;53.286;8.534;2023-08-01T13:25:56;18.50;99.90
13944;DHT22;7044;53.286;8.534;2023-08-01T13:28:24;18.50;99.90
13944;DHT22;7044;53.286;8.534;2023-08-01T13:30:51;18.50;99.90
13944;DHT22;7044;53.286;8.534;2023-08-01T13:33:19;18.50;99.90
13944;DHT22;7044;53.286;8.534;2023-08-01T13:35:45;18.50;99.90
13944;DHT22;7044;53.286;8.534;2023-08-01T13:38:12;18.60;99.90
13944;DHT22;7044;53.286;8.534;2023-08-01T13:40:39;18.60;99.90
13944;DHT22;7044;53.286;8.534;2023-08-01T13:43:06;18.60;99.90
13944;DHT22;7044;53.286;8.534;2023-08-01T13:45:33;18.70;99.90
13944;DHT22;7044;53.286;8.534;2023-08-01T13:48:00;18.70;99.90
13944;DHT22;7044;53.286;8.534;2023-08-01T13:50:29;18.70;99.90
13944;DHT22;7044;53.286;8.534;2023-08-01T13:52:56;18.70;99.90
13944;DHT22;7044;53.286;8.534;2023-08-01T13:55:23;18.80;99.90
13944;DHT22;7044;53.286;8.534;2023-08-01T13:57:50;18.80;99.90
13944;DHT22;7044;53.286;8.534;2023-08-01T14:00:17;18.90;99.90
13944;DHT22;7044;53.286;8.534;2023-08-01T14:02:44;18.90;99.90
13944;DHT22;7044;53.286;8.534;2023-08-01T14:05:11;18.90;99.90
13944;DHT22;7044;53.286;8.534;2023-08-01T14:07:39;18.70;99.90
13944;DHT22;7044;53.286;8.534;2023-08-01T14:10:07;18.70;99.90
13944;DHT22;7044;53.286;8.534;2023-08-01T14:12:34;18.40;99.90
13944;DHT22;7044;53.286;8.534;2023-08-01T14:15:01;18.60;99.90
13944;DHT22;7044;53.286;8.534;2023-08-01T14:17:28;18.40;99.90
13944;DHT22;7044;53.286;8.534;2023-08-01T14:19:55;18.30;99.90
13944;DHT22;7044;53.286;8.534;2023-08-01T14:22:22;18.20;99.90
13944;DHT22;7044;53.286;8.534;2023-08-01T14:24:50;18.20;99.90
13944;DHT22;7044;53.286;8.534;2023-08-01T14:27:17;18.30;99.90
13944;DHT22;7044;53.286;8.534;2023-08-01T14:29:44;18.70;99.90
13944;DHT22;7044;53.286;8.534;2023-08-01T14:32:10;18.70;99.90
13944;DHT22;7044;53.286;8.534;2023-08-01T14:34:37;18.90;99.90
13944;DHT22;7044;53.286;8.534;2023-08-01T14:37:04;19.00;99.90
13944;DHT22;7044;53.286;8.534;2023-08-01T14:39:31;19.00;99.90
13944;DHT22;7044;53.286;8.534;2023-08-01T14:44:26;18.90;99.90
13944;DHT22;7044;53.286;8.534;2023-08-01T14:46:53;18.70;99.90
13944;DHT22;7044;53.286;8.534;2023-08-01T14:49:20;18.70;99.90
13944;DHT22;7044;53.286;8.534;2023-08-01T14:51:47;18.60;99.90
13944;DHT22;7044;53.286;8.534;2023-08-01T14:54:15;18.30;99.90
13944;DHT22;7044;53.286;8.534;2023-08-01T14:56:41;18.50;99.90
13944;DHT22;7044;53.286;8.534;2023-08-01T14:59:10;18.60;99.90
13944;DHT22;7044;53.286;8.534;2023-08-01T15:04:04;18.80;99.90
13944;DHT22;7044;53.286;8.534;2023-08-01T15:06:31;18.90;99.90
13944;DHT22;7044;53.286;8.534;2023-08-01T15:08:58;18.90;99.90
13944;DHT22;7044;53.286;8.534;2023-08-01T15:11:25;18.90;99.90
13944;DHT22;7044;53.286;8.534;2023-08-01T15:13:52;18.70;99.90
13944;DHT22;7044;53.286;8.534;2023-08-01T15:16:20;18.70;99.90
13944;DHT22;7044;53.286;8.534;2023-08-01T15:18:46;18.70;99.90
13944;DHT22;7044;53.286;8.534;2023-08-01T15:21:13;18.60;99.90
13944;DHT22;7044;53.286;8.534;2023-08-01T15:23:40;18.40;99.90
13944;DHT22;7044;53.286;8.534;2023-08-01T15:26:07;18.30;99.90
13944;DHT22;7044;53.286;8.534;2023-08-01T15:28:34;18.40;99.90
13944;DHT22;7044;53.286;8.534;2023-08-01T15:31:02;18.20;99.90
13944;DHT22;7044;53.286;8.534;2023-08-01T15:33:32;16.80;99.90
13944;DHT22;7044;53.286;8.534;2023-08-01T15:36:00;18.10;99.90
13944;DHT22;7044;53.286;8.534;2023-08-01T15:38:27;18.10;99.90
13944;DHT22;7044;53.286;8.534;2023-08-01T15:40:56;18.10;99.90
13944;DHT22;7044;53.286;8.534;2023-08-01T15:43:24;18.10;99.90
13944;DHT22;7044;53.286;8.534;2023-08-01T15:45:51;18.10;99.90
13944;DHT22;7044;53.286;8.534;2023-08-01T15:48:17;18.10;99.90
13944;DHT22;7044;53.286;8.534;2023-08-01T15:50:45;18.20;99.90
13944;DHT22;7044;53.286;8.534;2023-08-01T15:53:12;18.20;99.90
13944;DHT22;7044;53.286;8.534;2023-08-01T15:58:06;18.60;99.90
13944;DHT22;7044;53.286;8.534;2023-08-01T16:00:33;18.60;99.90
13944;DHT22;7044;53.286;8.534;2023-08-01T16:03:01;18.50;99.90
13944;DHT22;7044;53.286;8.534;2023-08-01T16:05:30;18.40;99.90